sensor_id;sensor_type;location;lat;lon;timestamp;P1;durP1;ratioP1;P2;durP2;ratioP2
21170;SDS011;10743;52.160;20.910;2023-12-29T00:02:20;13.83;;;6.57;;
21170;SDS011;10743;52.160;20.910;2023-12-29T00:04:47;10.43;;;5.57;;
21170;SDS011;10743;52.160;20.910;2023-12-29T00:07:14;15.33;;;6.00;;
21170;SDS011;10743;52.160;20.910;2023-12-29T00:09:45;16.43;;;8.00;;
21170;SDS011;10743;52.160;20.910;2023-12-29T00:12:12;12.83;;;4.83;;
21170;SDS011;10743;52.160;20.910;2023-12-29T00:14:39;13.43;;;5.47;;
21170;SDS011;10743;52.160;20.910;2023-12-29T00:17:07;12.37;;;5.17;;
21170;SDS011;10743;52.160;20.910;2023-12-29T00:19:34;12.27;;;5.23;;
21170;SDS011;10743;52.160;20.910;2023-12-29T00:22:01;16.07;;;6.33;;
21170;SDS011;10743;52.160;20.910;2023-12-29T00:24:30;11.67;;;5.03;;
21170;SDS011;10743;52.160;20.910;2023-12-29T00:27:00;13.97;;;5.67;;
21170;SDS011;10743;52.160;20.910;2023-12-29T00:29:28;10.70;;;5.20;;
21170;SDS011;10743;52.160;20.910;2023-12-29T00:31:59;10.70;;;5.17;;
21170;SDS011;10743;52.160;20.910;2023-12-29T00:34:27;11.50;;;5.13;;
21170;SDS011;10743;52.160;20.910;2023-12-29T00:36:54;12.43;;;5.17;;
21170;SDS011;10743;52.160;20.910;2023-12-29T00:39:21;11.93;;;5.30;;
21170;SDS011;10743;52.160;20.910;2023-12-29T00:41:55;13.47;;;5.77;;
21170;SDS011;10743;52.160;20.910;2023-12-29T00:44:23;14.57;;;5.57;;
21170;SDS011;10743;52.160;20.910;2023-12-29T00:46:50;11.63;;;5.20;;
21170;SDS011;10743;52.160;20.910;2023-12-29T00:49:17;13.67;;;5.57;;
21170;SDS011;10743;52.160;20.910;2023-12-29T00:51:46;11.10;;;5.27;;
21170;SDS011;10743;52.160;20.910;2023-12-29T00:54:14;11.23;;;5.37;;
21170;SDS011;10743;52.160;20.910;2023-12-29T00:56:42;13.57;;;5.73;;
21170;SDS011;10743;52.160;20.910;2023-12-29T00:59:18;12.07;;;5.60;;
21170;SDS011;10743;52.160;20.910;2023-12-29T01:01:48;13.63;;;5.87;;
21170;SDS011;10743;52.160;20.910;2023-12-29T01:04:16;12.50;;;5.80;;
21170;SDS011;10743;52.160;20.910;2023-12-29T01:06:43;13.27;;;5.87;;
21170;SDS011;10743;52.160;20.910;2023-12-29T01:09:10;15.73;;;6.07;;
21170;SDS011;10743;52.160;20.910;2023-12-29T01:11:38;13.13;;;6.07;;
21170;SDS011;10743;52.160;20.910;2023-12-29T01:14:06;11.17;;;5.57;;
21170;SDS011;10743;52.160;20.910;2023-12-29T01:16:33;11.33;;;5.77;;
21170;SDS011;10743;52.160;20.910;2023-12-29T01:19:00;12.30;;;5.93;;
21170;SDS011;10743;52.160;20.910;2023-12-29T01:21:28;17.80;;;6.77;;
21170;SDS011;10743;52.160;20.910;2023-12-29T01:24:00;11.07;;;5.60;;
21170;SDS011;10743;52.160;20.910;2023-12-29T01:26:30;13.37;;;6.33;;
21170;SDS011;10743;52.160;20.910;2023-12-29T01:28:57;14.43;;;6.63;;
21170;SDS011;10743;52.160;20.910;2023-12-29T01:31:28;15.83;;;6.93;;
21170;SDS011;10743;52.160;20.910;2023-12-29T01:33:57;12.97;;;6.27;;
21170;SDS011;10743;52.160;20.910;2023-12-29T01:36:24;14.60;;;6.53;;
21170;SDS011;10743;52.160;20.910;2023-12-29T01:38:51;13.07;;;6.67;;
21170;SDS011;10743;52.160;20.910;2023-12-29T01:41:22;12.93;;;5.90;;
21170;SDS011;10743;52.160;20.910;2023-12-29T01:46:46;12.13;;;7.13;;
21170;SDS011;10743;52.160;20.910;2023-12-29T01:49:18;19.73;;;6.90;;
21170;SDS011;10743;52.160;20.910;2023-12-29T01:51:49;12.53;;;6.67;;
21170;SDS011;10743;52.160;20.910;2023-12-29T01:54:20;13.40;;;6.60;;
21170;SDS011;10743;52.160;20.910;2023-12-29T01:56:48;16.03;;;7.00;;
21170;SDS011;10743;52.160;20.910;2023-12-29T01:59:17;16.77;;;6.73;;
21170;SDS011;10743;52.160;20.910;2023-12-29T02:01:52;13.23;;;6.80;;
21170;SDS011;10743;52.160;20.910;2023-12-29T02:04:24;15.00;;;7.20;;
21170;SDS011;10743;52.160;20.910;2023-12-29T02:06:52;15.13;;;6.83;;
21170;SDS011;10743;52.160;20.910;2023-12-29T02:09:20;13.50;;;6.97;;
21170;SDS011;10743;52.160;20.910;2023-12-29T02:11:47;14.60;;;6.40;;
21170;SDS011;10743;52.160;20.910;2023-12-29T02:14:15;14.17;;;6.80;;
21170;SDS011;10743;52.160;20.910;2023-12-29T02:19:38;19.63;;;7.17;;
21170;SDS011;10743;52.160;20.910;2023-12-29T02:22:12;19.67;;;6.73;;
21170;SDS011;10743;52.160;20.910;2023-12-29T02:24:44;16.27;;;7.17;;
21170;SDS011;10743;52.160;20.910;2023-12-29T02:32:49;18.07;;;7.07;;
21170;SDS011;10743;52.160;20.910;2023-12-29T02:35:23;15.90;;;7.40;;
21170;SDS011;10743;52.160;20.910;2023-12-29T02:37:54;18.27;;;7.03;;
21170;SDS011;10743;52.160;20.910;2023-12-29T02:40:23;17.57;;;7.50;;
21170;SDS011;10743;52.160;20.910;2023-12-29T02:42:51;14.27;;;6.83;;
21170;SDS011;10743;52.160;20.910;2023-12-29T02:45:19;18.87;;;7.57;;
21170;SDS011;10743;52.160;20.910;2023-12-29T02:47:46;17.17;;;7.53;;
21170;SDS011;10743;52.160;20.910;2023-12-29T02:50:15;17.97;;;7.10;;
21170;SDS011;10743;52.160;20.910;2023-12-29T02:52:42;15.30;;;7.93;;
21170;SDS011;10743;52.160;20.910;2023-12-29T02:55:10;16.33;;;7.30;;
21170;SDS011;10743;52.160;20.910;2023-12-29T02:57:37;16.47;;;7.37;;
21170;SDS011;10743;52.160;20.910;2023-12-29T03:00:05;15.60;;;7.70;;
21170;SDS011;10743;52.160;20.910;2023-12-29T03:02:33;18.20;;;7.57;;
21170;SDS011;10743;52.160;20.910;2023-12-29T03:05:00;18.70;;;8.00;;
21170;SDS011;10743;52.160;20.910;2023-12-29T03:07:27;20.30;;;7.60;;
21170;SDS011;10743;52.160;20.910;2023-12-29T03:09:54;23.33;;;8.67;;
21170;SDS011;10743;52.160;20.910;2023-12-29T03:12:21;15.57;;;7.70;;
21170;SDS011;10743;52.160;20.910;2023-12-29T03:14:48;22.70;;;8.33;;
21170;SDS011;10743;52.160;20.910;2023-12-29T03:17:15;21.80;;;8.00;;
21170;SDS011;10743;52.160;20.910;2023-12-29T03:19:43;22.40;;;8.37;;
21170;SDS011;10743;52.160;20.910;2023-12-29T03:22:10;21.63;;;8.60;;
21170;SDS011;10743;52.160;20.910;2023-12-29T03:24:39;19.00;;;8.03;;
21170;SDS011;10743;52.160;20.910;2023-12-29T03:27:08;18.23;;;8.20;;
21170;SDS011;10743;52.160;20.910;2023-12-29T03:29:35;24.57;;;9.13;;
21170;SDS011;10743;52.160;20.910;2023-12-29T03:32:03;24.10;;;13.93;;
21170;SDS011;10743;52.160;20.910;2023-12-29T03:34:31;20.07;;;8.03;;
21170;SDS011;10743;52.160;20.910;2023-12-29T03:36:58;20.77;;;8.40;;
21170;SDS011;10743;52.160;20.910;2023-12-29T03:39:25;15.37;;;7.80;;
21170;SDS011;10743;52.160;20.910;2023-12-29T03:41:53;20.73;;;8.93;;
21170;SDS011;10743;52.160;20.910;2023-12-29T03:44:22;18.47;;;8.27;;
21170;SDS011;10743;52.160;20.910;2023-12-29T03:46:49;22.23;;;9.07;;
21170;SDS011;10743;52.160;20.910;2023-12-29T03:49:17;21.80;;;9.13;;
21170;SDS011;10743;52.160;20.910;2023-12-29T03:51:46;19.07;;;8.80;;
21170;SDS011;10743;52.160;20.910;2023-12-29T03:54:14;23.67;;;8.90;;
21170;SDS011;10743;52.160;20.910;2023-12-29T03:56:41;19.80;;;9.00;;
21170;SDS011;10743;52.160;20.910;2023-12-29T03:59:08;16.53;;;9.23;;
21170;SDS011;10743;52.160;20.910;2023-12-29T04:01:35;23.20;;;9.30;;
21170;SDS011;10743;52.160;20.910;2023-12-29T04:04:03;18.00;;;8.57;;
21170;SDS011;10743;52.160;20.910;2023-12-29T04:06:30;23.73;;;9.77;;
21170;SDS011;10743;52.160;20.910;2023-12-29T04:08:57;18.53;;;8.97;;
21170;SDS011;10743;52.160;20.910;2023-12-29T04:11:24;19.47;;;9.23;;
21170;SDS011;10743;52.160;20.910;2023-12-29T04:13:51;18.23;;;9.07;;
21170;SDS011;10743;52.160;20.910;2023-12-29T04:16:19;19.97;;;9.83;;
21170;SDS011;10743;52.160;20.910;2023-12-29T04:18:46;17.57;;;9.13;;
21170;SDS011;10743;52.160;20.910;2023-12-29T04:21:13;16.20;;;8.63;;
21170;SDS011;10743;52.160;20.910;2023-12-29T04:23:41;21.40;;;9.17;;
21170;SDS011;10743;52.160;20.910;2023-12-29T04:26:09;19.83;;;9.07;;
21170;SDS011;10743;52.160;20.910;2023-12-29T04:28:36;22.93;;;9.57;;
21170;SDS011;10743;52.160;20.910;2023-12-29T04:31:03;18.50;;;9.07;;
21170;SDS011;10743;52.160;20.910;2023-12-29T04:33:30;18.63;;;9.20;;
21170;SDS011;10743;52.160;20.910;2023-12-29T04:35:58;20.90;;;9.87;;
21170;SDS011;10743;52.160;20.910;2023-12-29T04:38:25;18.47;;;9.30;;
21170;SDS011;10743;52.160;20.910;2023-12-29T04:40:54;20.20;;;9.00;;
21170;SDS011;10743;52.160;20.910;2023-12-29T04:43:21;23.00;;;10.00;;
21170;SDS011;10743;52.160;20.910;2023-12-29T04:45:48;20.80;;;9.20;;
21170;SDS011;10743;52.160;20.910;2023-12-29T04:48:15;20.93;;;9.53;;
21170;SDS011;10743;52.160;20.910;2023-12-29T04:50:42;20.40;;;8.53;;
21170;SDS011;10743;52.160;20.910;2023-12-29T04:53:09;21.77;;;8.90;;
21170;SDS011;10743;52.160;20.910;2023-12-29T04:55:36;19.60;;;8.37;;
21170;SDS011;10743;52.160;20.910;2023-12-29T04:58:03;16.60;;;8.37;;
21170;SDS011;10743;52.160;20.910;2023-12-29T05:00:30;20.13;;;9.13;;
21170;SDS011;10743;52.160;20.910;2023-12-29T05:02:58;17.37;;;8.57;;
21170;SDS011;10743;52.160;20.910;2023-12-29T05:05:25;19.13;;;8.23;;
21170;SDS011;10743;52.160;20.910;2023-12-29T05:07:52;17.13;;;8.00;;
21170;SDS011;10743;52.160;20.910;2023-12-29T05:10:19;19.87;;;8.93;;
21170;SDS011;10743;52.160;20.910;2023-12-29T05:12:46;18.10;;;8.07;;
21170;SDS011;10743;52.160;20.910;2023-12-29T05:15:14;17.10;;;8.27;;
21170;SDS011;10743;52.160;20.910;2023-12-29T05:17:41;22.93;;;8.70;;
21170;SDS011;10743;52.160;20.910;2023-12-29T05:20:08;20.90;;;8.40;;
21170;SDS011;10743;52.160;20.910;2023-12-29T05:22:36;20.40;;;8.83;;
21170;SDS011;10743;52.160;20.910;2023-12-29T05:25:03;17.40;;;7.93;;
21170;SDS011;10743;52.160;20.910;2023-12-29T05:27:31;18.70;;;8.03;;
21170;SDS011;10743;52.160;20.910;2023-12-29T05:30:01;17.37;;;7.80;;
21170;SDS011;10743;52.160;20.910;2023-12-29T05:32:28;13.60;;;7.67;;
21170;SDS011;10743;52.160;20.910;2023-12-29T05:34:55;14.33;;;6.77;;
21170;SDS011;10743;52.160;20.910;2023-12-29T05:37:23;17.47;;;7.30;;
21170;SDS011;10743;52.160;20.910;2023-12-29T05:39:50;14.10;;;7.33;;
21170;SDS011;10743;52.160;20.910;2023-12-29T05:42:17;16.13;;;7.00;;
21170;SDS011;10743;52.160;20.910;2023-12-29T05:44:44;14.13;;;7.03;;
21170;SDS011;10743;52.160;20.910;2023-12-29T05:47:11;18.70;;;8.00;;
21170;SDS011;10743;52.160;20.910;2023-12-29T05:49:38;11.90;;;6.50;;
21170;SDS011;10743;52.160;20.910;2023-12-29T05:52:06;15.27;;;6.73;;
21170;SDS011;10743;52.160;20.910;2023-12-29T05:54:33;15.77;;;7.23;;
21170;SDS011;10743;52.160;20.910;2023-12-29T05:57:01;12.50;;;6.80;;
21170;SDS011;10743;52.160;20.910;2023-12-29T05:59:29;18.93;;;7.80;;
21170;SDS011;10743;52.160;20.910;2023-12-29T06:01:56;15.90;;;7.13;;
21170;SDS011;10743;52.160;20.910;2023-12-29T06:04:23;13.10;;;6.23;;
21170;SDS011;10743;52.160;20.910;2023-12-29T06:06:50;18.07;;;7.57;;
21170;SDS011;10743;52.160;20.910;2023-12-29T06:09:18;16.00;;;7.30;;
21170;SDS011;10743;52.160;20.910;2023-12-29T06:11:45;16.27;;;7.07;;
21170;SDS011;10743;52.160;20.910;2023-12-29T06:14:12;13.93;;;6.53;;
21170;SDS011;10743;52.160;20.910;2023-12-29T06:16:39;13.80;;;6.60;;
21170;SDS011;10743;52.160;20.910;2023-12-29T06:19:07;13.20;;;6.67;;
21170;SDS011;10743;52.160;20.910;2023-12-29T06:21:42;13.07;;;6.60;;
21170;SDS011;10743;52.160;20.910;2023-12-29T06:24:10;11.87;;;5.77;;
21170;SDS011;10743;52.160;20.910;2023-12-29T06:26:41;12.37;;;6.53;;
21170;SDS011;10743;52.160;20.910;2023-12-29T06:29:10;13.63;;;6.47;;
21170;SDS011;10743;52.160;20.910;2023-12-29T06:31:40;12.40;;;6.10;;
21170;SDS011;10743;52.160;20.910;2023-12-29T06:34:09;12.07;;;6.00;;
21170;SDS011;10743;52.160;20.910;2023-12-29T06:36:36;17.07;;;6.70;;
21170;SDS011;10743;52.160;20.910;2023-12-29T06:39:03;14.23;;;6.23;;
21170;SDS011;10743;52.160;20.910;2023-12-29T06:41:31;12.03;;;6.20;;
21170;SDS011;10743;52.160;20.910;2023-12-29T06:43:58;13.73;;;6.47;;
21170;SDS011;10743;52.160;20.910;2023-12-29T06:46:25;12.30;;;6.30;;
21170;SDS011;10743;52.160;20.910;2023-12-29T06:48:52;14.13;;;6.23;;
21170;SDS011;10743;52.160;20.910;2023-12-29T06:51:20;11.27;;;5.77;;
21170;SDS011;10743;52.160;20.910;2023-12-29T06:53:49;11.63;;;6.13;;
21170;SDS011;10743;52.160;20.910;2023-12-29T06:56:16;15.97;;;6.70;;
21170;SDS011;10743;52.160;20.910;2023-12-29T06:58:44;13.80;;;6.70;;
21170;SDS011;10743;52.160;20.910;2023-12-29T07:01:12;14.57;;;6.53;;
21170;SDS011;10743;52.160;20.910;2023-12-29T07:03:40;14.77;;;6.67;;
21170;SDS011;10743;52.160;20.910;2023-12-29T07:06:08;15.23;;;6.57;;
21170;SDS011;10743;52.160;20.910;2023-12-29T07:08:37;19.10;;;7.80;;
21170;SDS011;10743;52.160;20.910;2023-12-29T07:11:08;18.97;;;7.90;;
21170;SDS011;10743;52.160;20.910;2023-12-29T07:13:37;17.57;;;7.40;;
21170;SDS011;10743;52.160;20.910;2023-12-29T07:16:05;16.43;;;7.53;;
21170;SDS011;10743;52.160;20.910;2023-12-29T07:18:32;15.07;;;7.20;;
21170;SDS011;10743;52.160;20.910;2023-12-29T07:20:59;14.60;;;6.53;;
21170;SDS011;10743;52.160;20.910;2023-12-29T07:23:26;13.23;;;6.47;;
21170;SDS011;10743;52.160;20.910;2023-12-29T07:25:54;18.87;;;7.27;;
21170;SDS011;10743;52.160;20.910;2023-12-29T07:28:21;21.63;;;7.90;;
21170;SDS011;10743;52.160;20.910;2023-12-29T07:30:48;21.43;;;7.17;;
21170;SDS011;10743;52.160;20.910;2023-12-29T07:33:15;15.23;;;7.60;;
21170;SDS011;10743;52.160;20.910;2023-12-29T07:35:43;16.50;;;7.40;;
21170;SDS011;10743;52.160;20.910;2023-12-29T07:38:10;17.50;;;7.47;;
21170;SDS011;10743;52.160;20.910;2023-12-29T07:40:38;13.27;;;7.47;;
21170;SDS011;10743;52.160;20.910;2023-12-29T07:43:05;13.80;;;7.23;;
21170;SDS011;10743;52.160;20.910;2023-12-29T07:45:32;15.40;;;7.13;;
21170;SDS011;10743;52.160;20.910;2023-12-29T07:47:59;18.37;;;7.53;;
21170;SDS011;10743;52.160;20.910;2023-12-29T07:50:35;21.07;;;7.80;;
21170;SDS011;10743;52.160;20.910;2023-12-29T07:53:03;15.90;;;7.43;;
21170;SDS011;10743;52.160;20.910;2023-12-29T07:55:32;18.87;;;6.97;;
21170;SDS011;10743;52.160;20.910;2023-12-29T07:57:59;23.50;;;13.10;;
21170;SDS011;10743;52.160;20.910;2023-12-29T08:00:26;16.83;;;7.07;;
21170;SDS011;10743;52.160;20.910;2023-12-29T08:02:53;15.93;;;7.00;;
21170;SDS011;10743;52.160;20.910;2023-12-29T08:05:20;27.27;;;18.33;;
21170;SDS011;10743;52.160;20.910;2023-12-29T08:07:47;16.13;;;7.30;;
21170;SDS011;10743;52.160;20.910;2023-12-29T08:10:14;32.27;;;17.80;;
21170;SDS011;10743;52.160;20.910;2023-12-29T08:12:42;14.60;;;6.57;;
21170;SDS011;10743;52.160;20.910;2023-12-29T08:15:09;14.90;;;6.70;;
21170;SDS011;10743;52.160;20.910;2023-12-29T08:17:36;14.20;;;6.47;;
21170;SDS011;10743;52.160;20.910;2023-12-29T08:20:05;16.93;;;6.17;;
21170;SDS011;10743;52.160;20.910;2023-12-29T08:22:33;16.10;;;7.03;;
21170;SDS011;10743;52.160;20.910;2023-12-29T08:25:00;11.10;;;5.93;;
21170;SDS011;10743;52.160;20.910;2023-12-29T08:27:27;19.43;;;10.43;;
21170;SDS011;10743;52.160;20.910;2023-12-29T08:29:54;62.00;;;34.43;;
21170;SDS011;10743;52.160;20.910;2023-12-29T08:32:21;78.43;;;36.23;;
21170;SDS011;10743;52.160;20.910;2023-12-29T08:34:49;18.57;;;9.63;;
21170;SDS011;10743;52.160;20.910;2023-12-29T08:37:16;124.97;;;46.90;;
21170;SDS011;10743;52.160;20.910;2023-12-29T08:39:47;131.30;;;51.13;;
21170;SDS011;10743;52.160;20.910;2023-12-29T08:42:14;126.17;;;47.07;;
21170;SDS011;10743;52.160;20.910;2023-12-29T08:44:42;16.60;;;6.87;;
21170;SDS011;10743;52.160;20.910;2023-12-29T08:47:09;16.77;;;6.50;;
21170;SDS011;10743;52.160;20.910;2023-12-29T08:49:36;13.73;;;5.73;;
21170;SDS011;10743;52.160;20.910;2023-12-29T08:52:04;16.63;;;6.27;;
21170;SDS011;10743;52.160;20.910;2023-12-29T08:54:32;20.23;;;7.07;;
21170;SDS011;10743;52.160;20.910;2023-12-29T08:56:59;13.93;;;6.63;;
21170;SDS011;10743;52.160;20.910;2023-12-29T08:59:26;13.70;;;6.20;;
21170;SDS011;10743;52.160;20.910;2023-12-29T09:01:53;16.03;;;7.30;;
21170;SDS011;10743;52.160;20.910;2023-12-29T09:04:20;15.50;;;6.70;;
21170;SDS011;10743;52.160;20.910;2023-12-29T09:06:47;21.20;;;7.90;;
21170;SDS011;10743;52.160;20.910;2023-12-29T09:09:14;14.13;;;6.87;;
21170;SDS011;10743;52.160;20.910;2023-12-29T09:11:41;17.90;;;7.33;;
21170;SDS011;10743;52.160;20.910;2023-12-29T09:14:08;13.80;;;6.40;;
21170;SDS011;10743;52.160;20.910;2023-12-29T09:16:35;14.47;;;6.30;;
21170;SDS011;10743;52.160;20.910;2023-12-29T09:19:03;16.43;;;6.50;;
21170;SDS011;10743;52.160;20.910;2023-12-29T09:21:43;14.73;;;6.40;;
21170;SDS011;10743;52.160;20.910;2023-12-29T09:24:10;17.30;;;5.97;;
21170;SDS011;10743;52.160;20.910;2023-12-29T09:26:37;10.83;;;5.13;;
21170;SDS011;10743;52.160;20.910;2023-12-29T09:29:04;14.60;;;6.23;;
21170;SDS011;10743;52.160;20.910;2023-12-29T09:31:31;15.77;;;5.70;;
21170;SDS011;10743;52.160;20.910;2023-12-29T09:33:58;12.60;;;5.43;;
21170;SDS011;10743;52.160;20.910;2023-12-29T09:36:26;60.90;;;33.57;;
21170;SDS011;10743;52.160;20.910;2023-12-29T09:38:53;120.47;;;46.20;;
21170;SDS011;10743;52.160;20.910;2023-12-29T09:41:20;148.77;;;51.77;;
21170;SDS011;10743;52.160;20.910;2023-12-29T09:43:51;168.63;;;57.73;;
21170;SDS011;10743;52.160;20.910;2023-12-29T09:46:21;172.63;;;57.40;;
21170;SDS011;10743;52.160;20.910;2023-12-29T09:48:50;172.30;;;55.93;;
21170;SDS011;10743;52.160;20.910;2023-12-29T09:51:19;175.77;;;62.83;;
21170;SDS011;10743;52.160;20.910;2023-12-29T09:53:49;22.17;;;9.80;;
21170;SDS011;10743;52.160;20.910;2023-12-29T09:56:18;14.57;;;5.53;;
21170;SDS011;10743;52.160;20.910;2023-12-29T09:58:46;10.37;;;4.87;;
21170;SDS011;10743;52.160;20.910;2023-12-29T10:01:14;8.33;;;3.70;;
21170;SDS011;10743;52.160;20.910;2023-12-29T10:03:46;12.20;;;4.93;;
21170;SDS011;10743;52.160;20.910;2023-12-29T10:06:16;13.07;;;5.60;;
21170;SDS011;10743;52.160;20.910;2023-12-29T10:08:48;10.60;;;4.27;;
21170;SDS011;10743;52.160;20.910;2023-12-29T10:11:17;11.37;;;4.77;;
21170;SDS011;10743;52.160;20.910;2023-12-29T10:13:49;8.73;;;3.83;;
21170;SDS011;10743;52.160;20.910;2023-12-29T10:16:24;8.00;;;3.77;;
21170;SDS011;10743;52.160;20.910;2023-12-29T10:19:16;10.27;;;5.03;;
21170;SDS011;10743;52.160;20.910;2023-12-29T10:22:00;15.33;;;6.50;;
21170;SDS011;10743;52.160;20.910;2023-12-29T10:24:34;12.77;;;4.13;;
21170;SDS011;10743;52.160;20.910;2023-12-29T10:27:03;11.53;;;4.93;;
21170;SDS011;10743;52.160;20.910;2023-12-29T10:29:30;11.90;;;5.50;;
21170;SDS011;10743;52.160;20.910;2023-12-29T10:31:58;11.50;;;5.83;;
21170;SDS011;10743;52.160;20.910;2023-12-29T10:34:26;11.40;;;5.60;;
21170;SDS011;10743;52.160;20.910;2023-12-29T10:36:56;9.83;;;4.90;;
21170;SDS011;10743;52.160;20.910;2023-12-29T10:39:25;11.30;;;5.20;;
21170;SDS011;10743;52.160;20.910;2023-12-29T10:42:05;13.00;;;5.70;;
21170;SDS011;10743;52.160;20.910;2023-12-29T10:44:34;9.30;;;4.77;;
21170;SDS011;10743;52.160;20.910;2023-12-29T10:47:09;12.00;;;6.27;;
21170;SDS011;10743;52.160;20.910;2023-12-29T10:49:38;12.40;;;5.90;;
21170;SDS011;10743;52.160;20.910;2023-12-29T10:52:12;18.33;;;7.53;;
21170;SDS011;10743;52.160;20.910;2023-12-29T10:54:43;14.13;;;6.67;;
21170;SDS011;10743;52.160;20.910;2023-12-29T10:57:11;19.97;;;8.30;;
21170;SDS011;10743;52.160;20.910;2023-12-29T10:59:39;11.30;;;6.23;;
21170;SDS011;10743;52.160;20.910;2023-12-29T11:02:06;10.90;;;5.50;;
21170;SDS011;10743;52.160;20.910;2023-12-29T11:04:40;8.93;;;4.47;;
21170;SDS011;10743;52.160;20.910;2023-12-29T11:07:08;12.80;;;6.87;;
21170;SDS011;10743;52.160;20.910;2023-12-29T11:09:39;13.47;;;5.63;;
21170;SDS011;10743;52.160;20.910;2023-12-29T11:12:08;13.80;;;6.00;;
21170;SDS011;10743;52.160;20.910;2023-12-29T11:14:36;12.67;;;6.27;;
21170;SDS011;10743;52.160;20.910;2023-12-29T11:17:03;10.07;;;5.50;;
21170;SDS011;10743;52.160;20.910;2023-12-29T11:19:33;12.93;;;5.40;;
21170;SDS011;10743;52.160;20.910;2023-12-29T11:22:00;12.30;;;6.37;;
21170;SDS011;10743;52.160;20.910;2023-12-29T11:24:29;11.07;;;5.27;;
21170;SDS011;10743;52.160;20.910;2023-12-29T11:27:06;15.88;;;6.72;;
21170;SDS011;10743;52.160;20.910;2023-12-29T11:29:34;17.90;;;8.60;;
21170;SDS011;10743;52.160;20.910;2023-12-29T11:32:02;12.87;;;5.97;;
21170;SDS011;10743;52.160;20.910;2023-12-29T11:34:37;14.18;;;7.30;;
21170;SDS011;10743;52.160;20.910;2023-12-29T11:37:26;9.50;;;4.43;;
21170;SDS011;10743;52.160;20.910;2023-12-29T11:43:25;25.33;;;12.30;;
21170;SDS011;10743;52.160;20.910;2023-12-29T11:45:53;12.37;;;5.93;;
21170;SDS011;10743;52.160;20.910;2023-12-29T11:51:40;12.43;;;5.25;;
21170;SDS011;10743;52.160;20.910;2023-12-29T11:54:21;8.77;;;4.33;;
21170;SDS011;10743;52.160;20.910;2023-12-29T11:56:50;10.00;;;4.70;;
21170;SDS011;10743;52.160;20.910;2023-12-29T11:59:19;14.40;;;6.25;;
21170;SDS011;10743;52.160;20.910;2023-12-29T12:01:58;10.07;;;5.05;;
21170;SDS011;10743;52.160;20.910;2023-12-29T12:13:00;12.68;;;6.40;;
21170;SDS011;10743;52.160;20.910;2023-12-29T12:18:04;18.35;;;7.28;;
21170;SDS011;10743;52.160;20.910;2023-12-29T12:20:36;15.02;;;6.43;;
21170;SDS011;10743;52.160;20.910;2023-12-29T12:23:24;14.57;;;7.45;;
21170;SDS011;10743;52.160;20.910;2023-12-29T12:25:51;15.80;;;7.47;;
21170;SDS011;10743;52.160;20.910;2023-12-29T12:28:26;13.25;;;7.10;;
21170;SDS011;10743;52.160;20.910;2023-12-29T12:31:04;17.47;;;8.40;;
21170;SDS011;10743;52.160;20.910;2023-12-29T12:33:33;14.87;;;6.63;;
21170;SDS011;10743;52.160;20.910;2023-12-29T12:36:00;10.17;;;4.73;;
21170;SDS011;10743;52.160;20.910;2023-12-29T12:38:27;13.15;;;6.55;;
21170;SDS011;10743;52.160;20.910;2023-12-29T12:40:56;11.15;;;4.30;;
21170;SDS011;10743;52.160;20.910;2023-12-29T12:43:24;9.10;;;4.13;;
21170;SDS011;10743;52.160;20.910;2023-12-29T12:45:53;11.50;;;4.43;;
21170;SDS011;10743;52.160;20.910;2023-12-29T12:48:32;9.90;;;5.20;;
21170;SDS011;10743;52.160;20.910;2023-12-29T12:51:12;9.10;;;5.28;;
21170;SDS011;10743;52.160;20.910;2023-12-29T12:53:40;12.90;;;5.95;;
21170;SDS011;10743;52.160;20.910;2023-12-29T12:56:14;13.57;;;5.40;;
21170;SDS011;10743;52.160;20.910;2023-12-29T12:58:43;14.73;;;6.67;;
21170;SDS011;10743;52.160;20.910;2023-12-29T13:01:10;20.00;;;8.10;;
21170;SDS011;10743;52.160;20.910;2023-12-29T13:03:38;16.10;;;8.50;;
21170;SDS011;10743;52.160;20.910;2023-12-29T13:06:06;14.23;;;5.90;;
21170;SDS011;10743;52.160;20.910;2023-12-29T13:08:33;12.77;;;6.07;;
21170;SDS011;10743;52.160;20.910;2023-12-29T13:11:08;10.50;;;5.73;;
21170;SDS011;10743;52.160;20.910;2023-12-29T13:13:37;12.03;;;5.57;;
21170;SDS011;10743;52.160;20.910;2023-12-29T13:16:11;12.63;;;5.10;;
21170;SDS011;10743;52.160;20.910;2023-12-29T13:18:40;13.27;;;5.90;;
21170;SDS011;10743;52.160;20.910;2023-12-29T13:21:08;12.65;;;5.53;;
21170;SDS011;10743;52.160;20.910;2023-12-29T13:23:36;16.27;;;6.33;;
21170;SDS011;10743;52.160;20.910;2023-12-29T13:26:04;8.43;;;4.32;;
21170;SDS011;10743;52.160;20.910;2023-12-29T13:28:34;8.57;;;4.63;;
21170;SDS011;10743;52.160;20.910;2023-12-29T13:31:05;9.67;;;4.10;;
21170;SDS011;10743;52.160;20.910;2023-12-29T13:39:09;11.53;;;5.60;;
21170;SDS011;10743;52.160;20.910;2023-12-29T13:41:47;11.10;;;5.40;;
21170;SDS011;10743;52.160;20.910;2023-12-29T13:44:15;12.90;;;6.87;;
21170;SDS011;10743;52.160;20.910;2023-12-29T13:46:43;9.40;;;5.15;;
21170;SDS011;10743;52.160;20.910;2023-12-29T13:49:10;18.87;;;9.20;;
21170;SDS011;10743;52.160;20.910;2023-12-29T13:51:38;10.13;;;5.57;;
21170;SDS011;10743;52.160;20.910;2023-12-29T13:54:05;10.93;;;6.45;;
21170;SDS011;10743;52.160;20.910;2023-12-29T13:56:32;14.10;;;7.87;;
21170;SDS011;10743;52.160;20.910;2023-12-29T13:58:59;17.30;;;9.03;;
21170;SDS011;10743;52.160;20.910;2023-12-29T14:01:35;21.10;;;10.23;;
21170;SDS011;10743;52.160;20.910;2023-12-29T14:04:06;17.93;;;9.67;;
21170;SDS011;10743;52.160;20.910;2023-12-29T14:06:38;25.17;;;11.80;;
21170;SDS011;10743;52.160;20.910;2023-12-29T14:09:17;19.70;;;8.53;;
21170;SDS011;10743;52.160;20.910;2023-12-29T14:11:48;21.73;;;8.75;;
21170;SDS011;10743;52.160;20.910;2023-12-29T14:14:22;31.07;;;13.00;;
21170;SDS011;10743;52.160;20.910;2023-12-29T14:16:52;19.17;;;8.97;;
21170;SDS011;10743;52.160;20.910;2023-12-29T14:19:20;21.63;;;10.77;;
21170;SDS011;10743;52.160;20.910;2023-12-29T14:21:49;14.87;;;6.57;;
21170;SDS011;10743;52.160;20.910;2023-12-29T14:24:20;10.80;;;4.83;;
21170;SDS011;10743;52.160;20.910;2023-12-29T14:29:26;13.17;;;6.37;;
21170;SDS011;10743;52.160;20.910;2023-12-29T14:31:53;14.80;;;7.77;;
21170;SDS011;10743;52.160;20.910;2023-12-29T14:34:22;17.30;;;8.10;;
21170;SDS011;10743;52.160;20.910;2023-12-29T14:36:49;21.55;;;10.85;;
21170;SDS011;10743;52.160;20.910;2023-12-29T14:39:17;14.33;;;7.77;;
21170;SDS011;10743;52.160;20.910;2023-12-29T14:41:44;16.33;;;8.43;;
21170;SDS011;10743;52.160;20.910;2023-12-29T14:44:12;11.18;;;6.03;;
21170;SDS011;10743;52.160;20.910;2023-12-29T14:46:39;12.60;;;6.47;;
21170;SDS011;10743;52.160;20.910;2023-12-29T14:49:06;12.93;;;6.40;;
21170;SDS011;10743;52.160;20.910;2023-12-29T14:51:34;11.47;;;5.13;;
21170;SDS011;10743;52.160;20.910;2023-12-29T14:54:02;12.47;;;5.97;;
21170;SDS011;10743;52.160;20.910;2023-12-29T14:56:32;9.68;;;5.05;;
21170;SDS011;10743;52.160;20.910;2023-12-29T14:58:59;11.10;;;5.80;;
21170;SDS011;10743;52.160;20.910;2023-12-29T15:01:26;15.73;;;6.27;;
21170;SDS011;10743;52.160;20.910;2023-12-29T15:03:54;13.98;;;6.28;;
21170;SDS011;10743;52.160;20.910;2023-12-29T15:06:21;10.03;;;5.07;;
21170;SDS011;10743;52.160;20.910;2023-12-29T15:08:49;18.07;;;5.80;;